createdAt,value
2023-02-24T00:02:29.435Z,2.30
2023-02-24T00:05:16.899Z,1.70
2023-02-24T00:08:04.259Z,2.23
2023-02-24T00:10:52.508Z,1.50
2023-02-24T00:13:40.874Z,1.80
2023-02-24T00:16:28.325Z,2.00
2023-02-24T00:19:17.796Z,1.90
2023-02-24T00:22:05.995Z,1.83
2023-02-24T00:24:54.317Z,2.00
2023-02-24T00:27:42.515Z,1.70
2023-02-24T00:30:31.396Z,1.70
2023-02-24T00:33:22.793Z,2.27
2023-02-24T00:36:10.251Z,1.63
2023-02-24T00:38:59.090Z,2.00
2023-02-24T00:41:46.488Z,1.67
2023-02-24T00:44:38.343Z,1.70
2023-02-24T00:47:25.693Z,1.80
2023-02-24T00:50:14.066Z,1.53
2023-02-24T00:53:01.462Z,1.53
2023-02-24T00:55:48.941Z,1.57
2023-02-24T00:58:36.473Z,1.77
2023-02-24T01:01:25.245Z,2.00
2023-02-24T01:04:14.365Z,1.57
2023-02-24T01:07:02.017Z,1.50
2023-02-24T01:09:50.661Z,1.30
2023-02-24T01:12:50.110Z,1.57
2023-02-24T01:15:37.509Z,1.33
2023-02-24T01:18:24.833Z,1.63
2023-02-24T01:21:12.746Z,1.70
2023-02-24T01:24:00.141Z,1.20
2023-02-24T01:26:47.482Z,2.03
2023-02-24T01:29:39.568Z,1.20
2023-02-24T01:32:28.872Z,1.57
2023-02-24T01:35:16.546Z,1.73
2023-02-24T01:38:03.903Z,2.03
2023-02-24T01:41:00.206Z,1.90
2023-02-24T01:43:55.770Z,1.30
2023-02-24T01:46:44.432Z,1.83
2023-02-24T01:49:37.832Z,1.30
2023-02-24T01:52:32.241Z,1.40
2023-02-24T01:55:28.860Z,1.30
2023-02-24T01:58:37.091Z,2.07
2023-02-24T02:01:24.708Z,2.03
2023-02-24T02:04:16.998Z,1.73
2023-02-24T02:07:05.222Z,2.60
2023-02-24T02:09:55.701Z,1.70
2023-02-24T02:12:44.346Z,1.70
2023-02-24T02:15:33.150Z,1.70
2023-02-24T02:18:32.046Z,1.83
2023-02-24T02:21:40.033Z,1.70
2023-02-24T02:24:40.549Z,1.80
2023-02-24T02:27:38.383Z,2.00
2023-02-24T02:30:45.900Z,1.57
2023-02-24T02:33:46.787Z,1.40
2023-02-24T02:36:42.960Z,1.70
2023-02-24T02:39:48.608Z,2.10
2023-02-24T02:42:48.027Z,1.87
2023-02-24T02:45:41.494Z,1.97
2023-02-24T02:48:33.983Z,1.70
2023-02-24T02:51:24.734Z,1.70
2023-02-24T02:54:21.004Z,1.80
2023-02-24T02:57:17.176Z,1.53
2023-02-24T03:00:13.407Z,2.03
2023-02-24T03:03:03.435Z,1.93
2023-02-24T03:05:53.285Z,2.07
2023-02-24T03:08:43.374Z,1.70
2023-02-24T03:11:32.454Z,1.90
2023-02-24T03:14:23.940Z,2.33
2023-02-24T03:17:14.848Z,1.93
2023-02-24T03:20:24.038Z,1.60
2023-02-24T03:23:16.689Z,1.93
2023-02-24T03:26:06.008Z,1.90
2023-02-24T03:28:59.157Z,1.97
2023-02-24T03:31:54.081Z,1.87
2023-02-24T03:34:51.482Z,1.93
2023-02-24T03:37:38.852Z,2.53
2023-02-24T03:40:34.525Z,1.43
2023-02-24T03:43:26.074Z,1.80
2023-02-24T03:46:15.047Z,1.90
2023-02-24T03:49:13.860Z,2.10
2023-02-24T03:52:09.355Z,1.57
2023-02-24T03:54:59.728Z,1.73
2023-02-24T03:58:10.174Z,1.60
2023-02-24T04:01:30.936Z,1.53
2023-02-24T04:04:22.350Z,1.50
2023-02-24T04:07:12.569Z,1.57
2023-02-24T04:09:59.947Z,1.40
2023-02-24T04:12:53.643Z,1.80
2023-02-24T04:15:45.798Z,1.73
2023-02-24T04:18:33.513Z,1.77
2023-02-24T04:21:23.152Z,1.50
2023-02-24T04:24:15.290Z,2.10
2023-02-24T04:27:06.395Z,2.27
2023-02-24T04:29:55.170Z,1.50
2023-02-24T04:32:43.050Z,1.63
2023-02-24T04:35:30.522Z,1.73
2023-02-24T04:38:18.402Z,1.57
2023-02-24T04:41:05.794Z,1.57
2023-02-24T04:43:53.147Z,1.63
2023-02-24T04:46:40.584Z,1.43
2023-02-24T04:49:28.328Z,1.80
2023-02-24T04:52:15.877Z,1.47
2023-02-24T04:55:09.954Z,1.80
2023-02-24T04:57:57.752Z,1.93
2023-02-24T05:00:47.810Z,1.90
2023-02-24T05:03:36.012Z,1.60
2023-02-24T05:06:23.648Z,1.57
2023-02-24T05:09:14.585Z,1.57
2023-02-24T05:12:02.432Z,1.70
2023-02-24T05:14:49.807Z,1.90
2023-02-24T05:17:37.409Z,1.70
2023-02-24T05:20:43.705Z,1.60
2023-02-24T05:23:35.690Z,1.50
2023-02-24T05:26:26.589Z,1.60
2023-02-24T05:29:14.173Z,1.90
2023-02-24T05:32:02.450Z,1.70
2023-02-24T05:34:49.916Z,1.70
2023-02-24T05:37:42.008Z,3.00
2023-02-24T05:40:29.605Z,1.97
2023-02-24T05:43:18.741Z,2.00
2023-02-24T05:46:07.014Z,1.83
2023-02-24T05:48:56.901Z,1.83
2023-02-24T05:51:54.333Z,2.03
2023-02-24T05:54:43.857Z,1.87
2023-02-24T05:57:35.285Z,1.67
2023-02-24T06:00:25.821Z,1.93
2023-02-24T06:03:17.561Z,1.40
2023-02-24T06:06:09.063Z,1.40
2023-02-24T06:08:57.741Z,1.70
2023-02-24T06:11:45.207Z,2.13
2023-02-24T06:14:34.041Z,1.80
2023-02-24T06:17:21.944Z,1.93
2023-02-24T06:20:15.681Z,1.90
2023-02-24T06:23:05.223Z,1.90
2023-02-24T06:25:57.700Z,1.90
2023-02-24T06:28:45.710Z,2.20
2023-02-24T06:31:33.224Z,2.47
2023-02-24T06:34:21.310Z,1.80
2023-02-24T06:37:11.966Z,2.40
2023-02-24T06:39:59.403Z,2.00
2023-02-24T06:42:47.629Z,1.80
2023-02-24T06:45:35.823Z,2.17
2023-02-24T06:48:23.209Z,2.23
2023-02-24T06:51:13.495Z,2.17
2023-02-24T06:54:02.689Z,2.30
2023-02-24T06:56:50.441Z,2.07
2023-02-24T06:59:37.803Z,2.43
2023-02-24T07:02:29.839Z,2.40
2023-02-24T07:05:17.248Z,2.50
2023-02-24T07:08:04.598Z,2.70
2023-02-24T07:10:59.779Z,2.50
2023-02-24T07:13:47.966Z,2.77
2023-02-24T07:16:36.166Z,2.60
2023-02-24T07:19:26.022Z,2.77
2023-02-24T07:22:16.907Z,2.60
2023-02-24T07:25:07.102Z,2.70
2023-02-24T07:27:54.437Z,2.90
2023-02-24T07:30:42.413Z,2.63
2023-02-24T07:33:29.826Z,2.73
2023-02-24T07:36:23.036Z,2.93
2023-02-24T07:39:11.741Z,2.93
2023-02-24T07:41:59.376Z,2.53
2023-02-24T07:44:48.942Z,3.63
2023-02-24T07:47:36.563Z,3.70
2023-02-24T07:50:24.129Z,3.77
2023-02-24T07:53:12.083Z,4.53
2023-02-24T07:55:59.442Z,5.50
2023-02-24T07:58:50.884Z,4.50
2023-02-24T08:01:49.484Z,4.80
2023-02-24T08:04:41.026Z,4.57
2023-02-24T08:07:30.379Z,5.07
2023-02-24T08:10:24.460Z,4.40
2023-02-24T08:13:11.987Z,5.80
2023-02-24T08:15:59.447Z,5.67
2023-02-24T08:18:48.990Z,5.57
2023-02-24T08:21:41.112Z,6.57
2023-02-24T08:24:30.057Z,7.33
2023-02-24T08:27:20.191Z,7.80
2023-02-24T08:30:09.245Z,7.77
2023-02-24T08:32:57.571Z,7.53
2023-02-24T08:35:45.535Z,7.73
2023-02-24T08:38:41.725Z,8.57
2023-02-24T08:41:44.741Z,7.33
2023-02-24T08:44:34.929Z,8.40
2023-02-24T08:47:30.850Z,7.87
2023-02-24T08:50:18.252Z,8.07
2023-02-24T08:53:05.658Z,8.30
2023-02-24T08:55:52.987Z,8.00
2023-02-24T08:58:47.758Z,8.73
2023-02-24T09:01:39.752Z,7.70
2023-02-24T09:04:27.862Z,8.07
2023-02-24T09:07:16.709Z,8.83
2023-02-24T09:10:11.446Z,9.43
2023-02-24T09:12:58.792Z,8.53
2023-02-24T09:15:46.255Z,9.37
2023-02-24T09:18:38.341Z,10.27
2023-02-24T09:22:07.934Z,9.70
2023-02-24T09:25:17.907Z,7.97
2023-02-24T09:28:10.555Z,8.63
2023-02-24T09:30:59.098Z,8.70
2023-02-24T09:33:50.929Z,9.03
2023-02-24T09:36:45.126Z,7.97
2023-02-24T09:39:55.533Z,7.10
2023-02-24T09:42:58.194Z,6.43
2023-02-24T09:45:53.338Z,6.27
2023-02-24T09:48:54.354Z,6.43
2023-02-24T09:51:44.536Z,6.80
2023-02-24T09:54:35.212Z,5.43
2023-02-24T09:57:25.433Z,6.03
2023-02-24T10:00:26.091Z,5.40
2023-02-24T10:03:19.646Z,5.43
2023-02-24T10:06:13.241Z,5.43
2023-02-24T10:09:11.429Z,5.80
2023-02-24T10:12:04.539Z,5.10
2023-02-24T10:15:16.831Z,5.63
2023-02-24T10:18:27.072Z,4.37
2023-02-24T10:21:48.268Z,4.40
2023-02-24T10:24:47.225Z,4.17
2023-02-24T10:27:39.455Z,3.93
2023-02-24T10:30:27.999Z,3.43
2023-02-24T10:33:20.615Z,3.80
2023-02-24T10:36:12.648Z,3.80
2023-02-24T10:39:08.359Z,3.37
2023-02-24T10:41:57.920Z,3.23
2023-02-24T10:45:01.464Z,3.33
2023-02-24T10:47:57.398Z,4.00
2023-02-24T10:50:55.354Z,3.50
2023-02-24T10:53:53.000Z,3.77
2023-02-24T10:56:55.386Z,3.40
2023-02-24T11:00:05.531Z,3.37
2023-02-24T11:03:10.416Z,4.00
2023-02-24T11:06:03.946Z,3.80
2023-02-24T11:09:08.880Z,3.20
2023-02-24T11:12:16.144Z,3.73
2023-02-24T11:15:24.614Z,3.53
2023-02-24T11:18:19.988Z,3.90
2023-02-24T11:21:09.286Z,4.00
2023-02-24T11:24:02.534Z,3.97
2023-02-24T11:26:49.892Z,3.90
2023-02-24T11:29:50.046Z,4.33
2023-02-24T11:32:55.138Z,3.93
2023-02-24T11:36:02.488Z,4.00
2023-02-24T11:38:52.681Z,4.00
2023-02-24T11:41:44.374Z,4.00
2023-02-24T11:44:37.188Z,4.13
2023-02-24T11:47:29.732Z,4.40
2023-02-24T11:50:30.421Z,4.10
2023-02-24T11:53:23.770Z,4.10
2023-02-24T11:56:17.836Z,3.77
2023-02-24T11:59:08.180Z,4.53
2023-02-24T12:02:05.546Z,5.23
2023-02-24T12:04:59.410Z,4.33
2023-02-24T12:07:50.654Z,4.10
2023-02-24T12:10:47.395Z,4.00
2023-02-24T12:13:37.945Z,3.90
2023-02-24T12:16:29.106Z,4.07
2023-02-24T12:19:24.313Z,3.90
2023-02-24T12:22:15.685Z,4.57
2023-02-24T12:25:04.962Z,5.00
2023-02-24T12:27:58.439Z,4.40
2023-02-24T12:30:51.692Z,5.20
2023-02-24T12:33:44.728Z,4.07
2023-02-24T12:36:37.798Z,4.30
2023-02-24T12:39:31.598Z,4.50
2023-02-24T12:42:34.813Z,4.97
2023-02-24T12:45:38.087Z,4.90
2023-02-24T12:48:45.716Z,4.93
2023-02-24T12:51:51.893Z,4.70
2023-02-24T12:54:51.584Z,4.53
2023-02-24T12:57:40.292Z,5.53
2023-02-24T13:00:46.389Z,4.50
2023-02-24T13:03:36.558Z,4.73
2023-02-24T13:06:38.795Z,4.00
2023-02-24T13:09:46.756Z,4.53
2023-02-24T13:12:41.043Z,3.23
2023-02-24T13:15:32.768Z,3.87
2023-02-24T13:18:28.745Z,3.50
2023-02-24T13:21:16.101Z,3.17
2023-02-24T13:24:03.695Z,2.60
2023-02-24T13:26:51.143Z,2.73
2023-02-24T13:29:48.729Z,2.87
2023-02-24T13:32:40.799Z,2.70
2023-02-24T13:35:28.285Z,2.43
2023-02-24T13:38:36.635Z,2.30
2023-02-24T13:41:24.333Z,2.23
2023-02-24T13:44:28.702Z,1.90
2023-02-24T13:47:17.164Z,2.30
2023-02-24T13:50:13.866Z,2.57
2023-02-24T13:53:01.822Z,2.90
2023-02-24T13:55:49.216Z,2.90
2023-02-24T13:58:43.300Z,3.10
2023-02-24T14:01:32.260Z,3.23
2023-02-24T14:04:23.209Z,3.03
2023-02-24T14:07:12.263Z,3.13
2023-02-24T14:10:24.843Z,3.20
2023-02-24T14:13:20.848Z,3.00
2023-02-24T14:16:14.158Z,2.90
2023-02-24T14:19:02.818Z,2.57
2023-02-24T14:21:54.888Z,3.23
2023-02-24T14:24:42.309Z,3.33
2023-02-24T14:27:29.771Z,2.40
2023-02-24T14:30:28.341Z,3.00
2023-02-24T14:33:22.881Z,3.67
2023-02-24T14:36:18.289Z,2.77
2023-02-24T14:39:22.761Z,2.40
2023-02-24T14:42:15.860Z,2.07
2023-02-24T14:45:03.269Z,2.47
2023-02-24T14:47:50.615Z,2.30
2023-02-24T14:50:37.973Z,2.00
2023-02-24T14:53:27.624Z,2.47
2023-02-24T14:56:15.382Z,2.40
2023-02-24T14:59:12.945Z,2.23
2023-02-24T15:02:02.557Z,2.37
2023-02-24T15:04:50.089Z,2.27
2023-02-24T15:07:37.770Z,2.47
2023-02-24T15:10:27.662Z,2.13
2023-02-24T15:13:22.203Z,3.10
2023-02-24T15:16:13.027Z,2.03
2023-02-24T15:19:01.894Z,2.37
2023-02-24T15:21:49.477Z,2.47
2023-02-24T15:24:36.834Z,1.83
2023-02-24T15:27:25.978Z,2.13
2023-02-24T15:30:30.372Z,2.00
2023-02-24T15:33:23.032Z,2.10
2023-02-24T15:36:18.205Z,1.83
2023-02-24T15:39:12.551Z,3.60
2023-02-24T15:42:28.347Z,6.00
2023-02-24T15:45:41.972Z,2.60
2023-02-24T15:48:31.115Z,1.50
2023-02-24T15:51:39.184Z,1.20
2023-02-24T15:54:35.127Z,1.40
2023-02-24T15:57:22.645Z,1.40
2023-02-24T16:00:13.143Z,1.50
2023-02-24T16:03:00.617Z,1.57
2023-02-24T16:05:48.021Z,1.50
2023-02-24T16:08:44.446Z,1.57
2023-02-24T16:11:35.326Z,1.57
2023-02-24T16:14:22.705Z,1.50
2023-02-24T16:17:29.219Z,1.60
2023-02-24T16:20:18.496Z,2.10
2023-02-24T16:23:06.281Z,2.10
2023-02-24T16:25:57.857Z,1.53
2023-02-24T16:28:55.388Z,2.00
2023-02-24T16:31:43.463Z,2.10
2023-02-24T16:34:30.985Z,1.73
2023-02-24T16:37:20.346Z,2.43
2023-02-24T16:40:17.632Z,1.83
2023-02-24T16:43:05.350Z,1.50
2023-02-24T16:45:54.532Z,3.23
2023-02-24T16:48:42.232Z,2.60
2023-02-24T16:51:31.055Z,2.10
2023-02-24T16:54:21.825Z,2.37
2023-02-24T16:57:09.312Z,1.97
2023-02-24T16:59:56.673Z,1.87
2023-02-24T17:02:45.162Z,2.30
2023-02-24T17:05:32.508Z,2.30
2023-02-24T17:08:19.884Z,2.40
2023-02-24T17:11:07.271Z,3.37
2023-02-24T17:13:54.646Z,2.27
2023-02-24T17:16:42.095Z,2.63
2023-02-24T17:19:29.459Z,2.30
2023-02-24T17:22:17.622Z,2.40
2023-02-24T17:25:05.182Z,2.57
2023-02-24T17:27:52.848Z,2.70
2023-02-24T17:30:41.148Z,2.73
2023-02-24T17:33:28.599Z,3.07
2023-02-24T17:36:16.076Z,2.97
2023-02-24T17:39:03.457Z,3.30
2023-02-24T17:41:50.813Z,3.57
2023-02-24T17:44:38.156Z,2.77
2023-02-24T17:47:25.589Z,3.33
2023-02-24T17:50:13.751Z,3.43
2023-02-24T17:53:01.597Z,3.67
2023-02-24T17:56:01.783Z,3.00
2023-02-24T17:58:49.849Z,3.50
2023-02-24T18:01:37.242Z,3.10
2023-02-24T18:04:24.587Z,3.53
2023-02-24T18:07:12.897Z,3.03
2023-02-24T18:10:00.281Z,3.33
2023-02-24T18:12:47.767Z,3.10
2023-02-24T18:15:35.115Z,3.53
2023-02-24T18:18:22.486Z,4.03
2023-02-24T18:21:09.826Z,3.07
2023-02-24T18:23:57.302Z,3.73
2023-02-24T18:26:44.694Z,4.00
2023-02-24T18:29:32.093Z,3.33
2023-02-24T18:32:20.240Z,3.07
2023-02-24T18:35:07.813Z,3.30
2023-02-24T18:37:58.160Z,3.00
2023-02-24T18:40:45.545Z,3.63
2023-02-24T18:43:33.456Z,3.50
2023-02-24T18:46:21.648Z,3.40
2023-02-24T18:49:09.256Z,4.30
2023-02-24T18:51:56.680Z,4.20
2023-02-24T18:54:44.069Z,4.17
2023-02-24T18:57:31.485Z,5.03
2023-02-24T19:00:19.047Z,5.00
2023-02-24T19:03:06.604Z,6.27
2023-02-24T19:05:54.036Z,6.40
2023-02-24T19:08:42.090Z,7.03
2023-02-24T19:11:29.880Z,5.20
2023-02-24T19:14:17.231Z,8.07
2023-02-24T19:17:04.612Z,7.77
2023-02-24T19:19:52.371Z,5.27
2023-02-24T19:22:39.715Z,4.70
2023-02-24T19:25:27.120Z,4.13
2023-02-24T19:28:14.454Z,4.10
2023-02-24T19:31:01.855Z,3.80
2023-02-24T19:33:53.013Z,3.90
2023-02-24T19:36:41.131Z,4.07
2023-02-24T19:39:28.601Z,4.90
2023-02-24T19:42:15.956Z,4.03
2023-02-24T19:45:03.292Z,4.13
2023-02-24T19:47:50.665Z,4.57
2023-02-24T19:50:41.246Z,3.87
2023-02-24T19:53:28.696Z,3.70
2023-02-24T19:56:16.021Z,3.50
2023-02-24T19:59:04.911Z,4.07
2023-02-24T20:01:54.120Z,3.13
2023-02-24T20:04:41.571Z,4.60
2023-02-24T20:07:29.621Z,4.10
2023-02-24T20:10:17.677Z,3.47
2023-02-24T20:13:05.533Z,3.63
2023-02-24T20:15:52.915Z,4.30
2023-02-24T20:18:40.652Z,3.53
2023-02-24T20:21:28.509Z,5.30
2023-02-24T20:24:17.015Z,5.27
2023-02-24T20:27:04.719Z,3.63
2023-02-24T20:29:53.638Z,2.70
2023-02-24T20:32:41.268Z,2.87
2023-02-24T20:35:28.832Z,3.53
2023-02-24T20:38:16.240Z,3.70
2023-02-24T20:41:04.225Z,3.20
2023-02-24T20:43:51.641Z,2.40
2023-02-24T20:46:39.065Z,2.63
2023-02-24T20:49:27.203Z,2.20
2023-02-24T20:52:14.565Z,2.17
2023-02-24T20:55:02.377Z,2.23
2023-02-24T20:57:50.068Z,2.57
2023-02-24T21:00:39.927Z,2.30
2023-02-24T21:03:27.283Z,2.33
2023-02-24T21:06:16.002Z,2.20
2023-02-24T21:09:03.984Z,1.63
2023-02-24T21:11:51.328Z,1.53
2023-02-24T21:14:38.793Z,1.60
2023-02-24T21:17:26.119Z,1.33
2023-02-24T21:20:14.014Z,1.37
2023-02-24T21:23:01.626Z,1.70
2023-02-24T21:25:52.463Z,1.50
2023-02-24T21:28:40.833Z,1.20
2023-02-24T21:31:28.711Z,1.57
2023-02-24T21:34:16.809Z,1.30
2023-02-24T21:37:05.925Z,1.20
2023-02-24T21:39:53.328Z,1.10
2023-02-24T21:42:43.820Z,1.03
2023-02-24T21:45:33.020Z,1.13
2023-02-24T21:48:20.528Z,1.40
2023-02-24T21:51:09.465Z,1.23
2023-02-24T21:53:57.825Z,1.07
2023-02-24T21:56:45.251Z,1.20
2023-02-24T21:59:33.100Z,1.40
2023-02-24T22:02:20.510Z,1.50
2023-02-24T22:05:08.042Z,1.30
2023-02-24T22:07:56.906Z,1.30
2023-02-24T22:10:44.265Z,1.30
2023-02-24T22:13:31.793Z,1.23
2023-02-24T22:16:20.913Z,1.30
2023-02-24T22:19:08.774Z,1.30
2023-02-24T22:21:58.587Z,1.30
2023-02-24T22:24:46.066Z,1.60
2023-02-24T22:27:33.763Z,1.50
2023-02-24T22:30:21.171Z,1.40
2023-02-24T22:33:08.520Z,1.43
2023-02-24T22:35:56.110Z,1.50
2023-02-24T22:38:45.601Z,1.47
2023-02-24T22:41:34.376Z,1.70
2023-02-24T22:44:21.790Z,1.40
2023-02-24T22:47:09.287Z,1.33
2023-02-24T22:49:56.645Z,1.60
2023-02-24T22:52:43.994Z,1.00
2023-02-24T22:55:31.425Z,1.50
2023-02-24T22:58:19.396Z,1.50
2023-02-24T23:01:10.544Z,1.20
2023-02-24T23:04:01.620Z,1.47
2023-02-24T23:06:49.016Z,1.13
2023-02-24T23:09:36.546Z,1.47
2023-02-24T23:12:23.943Z,1.30
2023-02-24T23:15:11.464Z,1.40
2023-02-24T23:17:58.871Z,1.07
2023-02-24T23:20:46.535Z,1.00
2023-02-24T23:23:34.027Z,1.40
2023-02-24T23:26:21.663Z,1.40
2023-02-24T23:29:10.410Z,1.47
2023-02-24T23:31:58.055Z,1.50
2023-02-24T23:34:45.781Z,1.50
2023-02-24T23:37:33.147Z,1.50
2023-02-24T23:40:25.892Z,1.57
2023-02-24T23:43:14.295Z,1.60
2023-02-24T23:46:05.677Z,1.60
2023-02-24T23:48:53.491Z,1.70
2023-02-24T23:51:48.603Z,1.80
2023-02-24T23:54:36.434Z,1.60
2023-02-24T23:57:23.836Z,1.40
